Time;durP1;ratioP1;P1;durP2;ratioP2;P2;SDS_P1;SDS_P2;PMS_P1;PMS_P2;Temp;Humidity;BMP_temperature;BMP_pressure;BME280_temperature;BME280_humidity;BME280_pressure;Samples;Min_cycle;Max_cycle;Signal;HPM_P1;HPM_P2
2023/04/19 00:01:43;;;;;;;23.60;10.90;;;;;;;9.23;90.57;100669.37;106031;1254;65125;-89
2023/04/19 00:04:10;;;;;;;26.30;10.80;;;;;;;9.22;90.38;100658.96;105964;1254;73735;-85
2023/04/19 00:06:39;;;;;;;24.50;11.30;;;;;;;9.21;90.22;100656.55;106096;1253;62449;-86
2023/04/19 00:09:07;;;;;;;25.50;13.00;;;;;;;9.21;90.27;100650.77;105940;1254;61656;-87
2023/04/19 00:11:34;;;;;;;27.10;12.10;;;;;;;9.24;90.45;100649.77;106068;1254;74781;-89
2023/04/19 00:14:01;;;;;;;22.10;10.70;;;;;;;9.27;90.58;100648.19;106032;1254;63805;-87
2023/04/19 00:16:28;;;;;;;26.00;11.00;;;;;;;9.31;90.59;100649.05;106002;1254;72399;-87
2023/04/19 00:18:55;;;;;;;25.90;13.60;;;;;;;9.34;90.58;100644.66;106028;1254;60727;-88
2023/04/19 00:21:22;;;;;;;33.60;16.10;;;;;;;9.36;90.41;100645.46;105782;1254;61151;-87
2023/04/19 00:23:49;;;;;;;37.40;16.90;;;;;;;9.36;90.19;100647.57;106118;1253;73783;-88
2023/04/19 00:26:16;;;;;;;39.70;19.20;;;;;;;9.33;90.03;100652.92;106101;1256;64485;-87
2023/04/19 00:28:45;;;;;;;37.20;18.90;;;;;;;9.30;89.81;100656.40;105978;1254;72944;-86
2023/04/19 00:31:12;;;;;;;40.50;17.60;;;;;;;9.27;89.84;100653.08;105968;1256;63188;-85
2023/04/19 00:33:41;;;;;;;45.80;19.70;;;;;;;9.25;89.97;100647.44;105943;1254;60786;-88
2023/04/19 00:36:09;;;;;;;31.80;14.60;;;;;;;9.23;89.96;100642.83;105995;1256;74892;-86
2023/04/19 00:38:36;;;;;;;29.80;13.80;;;;;;;9.22;90.36;100638.72;106019;1256;63809;-88
2023/04/19 00:41:03;;;;;;;21.00;12.30;;;;;;;9.21;91.35;100635.61;106879;1254;72684;-87
2023/04/19 00:43:30;;;;;;;29.40;13.10;;;;;;;9.24;92.57;100631.45;106445;1254;62826;-85
2023/04/19 00:45:57;;;;;;;22.20;13.20;;;;;;;9.29;93.29;100632.73;106135;1254;60440;-85
2023/04/19 00:48:24;;;;;;;27.90;13.80;;;;;;;9.37;93.59;100631.61;105952;1257;74771;-86
2023/04/19 00:50:51;;;;;;;32.30;15.00;;;;;;;9.42;93.50;100633.60;105912;1257;64733;-87
2023/04/19 00:53:18;;;;;;;39.50;16.30;;;;;;;9.46;93.83;100624.50;105945;1254;73646;-86
2023/04/19 00:55:45;;;;;;;31.60;15.20;;;;;;;9.49;94.07;100620.84;106192;1252;60463;-84
2023/04/19 00:58:12;;;;;;;32.00;15.80;;;;;;;9.52;94.07;100618.71;105723;1253;60559;-83
2023/04/19 01:00:43;;;;;;;30.50;14.20;;;;;;;9.56;94.09;100616.42;107230;1254;73918;-85
2023/04/19 01:03:10;;;;;;;31.40;13.50;;;;;;;9.60;94.18;100617.27;106456;1256;63705;-85
2023/04/19 01:05:37;;;;;;;32.20;14.20;;;;;;;9.62;94.17;100614.49;106308;1252;72443;-85
2023/04/19 01:08:05;;;;;;;30.00;13.70;;;;;;;9.67;94.34;100614.06;105945;1257;63099;-85
2023/04/19 01:10:32;;;;;;;22.20;12.80;;;;;;;9.73;94.37;100611.81;105882;1256;61231;-87
2023/04/19 01:12:59;;;;;;;28.40;12.30;;;;;;;9.77;94.26;100610.70;106020;1254;73696;-88
2023/04/19 01:15:26;;;;;;;20.90;11.80;;;;;;;9.81;94.20;100611.15;106046;1253;63955;-86
2023/04/19 01:17:55;;;;;;;24.50;12.50;;;;;;;9.85;94.20;100605.04;105983;1254;73013;-85
2023/04/19 01:20:22;;;;;;;22.90;12.40;;;;;;;9.92;94.24;100600.94;106072;1252;60657;-85
2023/04/19 01:22:50;;;;;;;24.80;12.50;;;;;;;9.98;93.95;100595.86;105960;1257;60627;-86
2023/04/19 01:25:17;;;;;;;25.80;13.00;;;;;;;10.04;93.93;100588.39;105896;1258;73876;-85
2023/04/19 01:27:44;;;;;;;29.10;13.40;;;;;;;10.10;93.68;100588.54;106034;1254;65711;-86
2023/04/19 01:30:11;;;;;;;30.90;13.30;;;;;;;10.14;93.39;100585.53;105926;1256;73743;-86
2023/04/19 01:32:40;;;;;;;26.70;11.60;;;;;;;10.16;92.92;100582.97;105960;1253;62785;-86
2023/04/19 01:35:09;;;;;;;20.70;10.80;;;;;;;10.16;92.74;100583.45;105964;1256;61164;-87
2023/04/19 01:37:36;;;;;;;29.60;11.80;;;;;;;10.16;92.81;100580.38;106095;1255;73870;-86
2023/04/19 01:40:06;;;;;;;24.50;11.00;;;;;;;10.15;92.93;100584.73;105947;1254;64922;-87
2023/04/19 01:42:34;;;;;;;26.30;11.30;;;;;;;10.18;92.77;100585.80;105701;1252;73554;-88
2023/04/19 01:45:01;;;;;;;26.00;11.20;;;;;;;10.21;92.84;100584.25;105999;1257;61857;-86
2023/04/19 01:47:28;;;;;;;27.30;13.10;;;;;;;10.24;92.76;100587.21;105859;1253;61332;-87
2023/04/19 01:49:55;;;;;;;33.90;14.00;;;;;;;10.27;92.71;100592.79;106080;1255;74836;-87
2023/04/19 01:52:22;;;;;;;27.50;15.00;;;;;;;10.28;92.67;100596.04;107137;1252;63922;-85
2023/04/19 01:54:49;;;;;;;30.10;13.90;;;;;;;10.30;92.52;100595.59;107375;1254;73890;-86
2023/04/19 01:57:19;;;;;;;30.10;13.50;;;;;;;10.31;92.43;100593.47;106429;1254;61280;-84
2023/04/19 01:59:47;;;;;;;40.70;14.70;;;;;;;10.30;92.27;100587.56;105913;1259;60377;-86
2023/04/19 02:02:13;;;;;;;32.50;12.40;;;;;;;10.28;92.30;100584.19;107112;1257;72802;-83
2023/04/19 02:04:40;;;;;;;26.90;12.10;;;;;;;10.24;92.48;100584.23;106383;1257;63736;-84
2023/04/19 02:07:07;;;;;;;28.20;10.70;;;;;;;10.22;92.68;100579.11;105821;1260;73582;-87
2023/04/19 02:09:35;;;;;;;31.10;10.20;;;;;;;10.24;92.84;100572.91;105611;1255;63863;-86
2023/04/19 02:12:04;;;;;;;28.70;9.60;;;;;;;10.28;92.80;100566.38;105554;1257;61256;-87
2023/04/19 02:14:31;;;;;;;24.90;9.20;;;;;;;10.29;92.75;100566.50;105907;1259;74957;-87
2023/04/19 02:16:58;;;;;;;27.90;11.20;;;;;;;10.27;92.62;100567.62;105534;1257;64607;-85
2023/04/19 02:19:25;;;;;;;27.50;12.10;;;;;;;10.26;92.56;100570.50;105774;1257;73127;-87
2023/04/19 02:21:56;;;;;;;20.60;10.20;;;;;;;10.28;92.34;100572.14;105784;1257;61066;-87
2023/04/19 02:24:23;;;;;;;24.80;9.90;;;;;;;10.29;92.07;100575.75;105665;1257;61042;-86
2023/04/19 02:26:52;;;;;;;26.70;10.80;;;;;;;10.30;91.86;100579.01;105836;1259;74774;-89
2023/04/19 02:29:19;;;;;;;26.00;10.60;;;;;;;10.31;91.63;100582.08;105767;1259;65008;-88
2023/04/19 02:31:46;;;;;;;23.20;11.20;;;;;;;10.32;91.72;100586.23;106048;1253;72630;-87
2023/04/19 02:34:13;;;;;;;27.00;11.70;;;;;;;10.32;91.68;100585.37;106411;1253;62081;-88
2023/04/19 02:36:41;;;;;;;21.60;10.70;;;;;;;10.34;91.68;100587.88;106337;1254;61190;-86
2023/04/19 02:39:07;;;;;;;29.50;11.70;;;;;;;10.36;91.73;100588.29;106237;1253;74895;-86
2023/04/19 02:41:38;;;;;;;23.50;12.30;;;;;;;10.40;91.63;100597.33;106461;1253;63757;-87
2023/04/19 02:44:05;;;;;;;24.30;11.80;;;;;;;10.44;91.59;100599.90;107115;1253;73712;-86
2023/04/19 02:46:34;;;;;;;23.70;10.10;;;;;;;10.46;91.49;100602.20;107165;1259;60502;-87
2023/04/19 02:49:01;;;;;;;21.20;10.60;;;;;;;10.48;91.28;100602.10;105972;1254;61348;-86
2023/04/19 02:51:28;;;;;;;25.10;10.20;;;;;;;10.49;91.34;100605.00;106022;1257;74231;-88
2023/04/19 02:53:55;;;;;;;21.00;10.20;;;;;;;10.50;91.31;100607.22;106012;1256;64682;-87
2023/04/19 02:56:22;;;;;;;22.70;9.20;;;;;;;10.47;91.48;100597.79;106143;1257;73700;-85
2023/04/19 02:58:49;;;;;;;33.30;10.30;;;;;;;10.45;91.90;100598.60;105737;1258;61810;-87
2023/04/19 03:01:16;;;;;;;23.60;9.70;;;;;;;10.43;92.63;100594.15;106440;1256;60437;-87
2023/04/19 03:03:43;;;;;;;24.40;8.80;;;;;;;10.45;93.40;100590.17;106342;1253;73609;-86
2023/04/19 03:06:11;;;;;;;22.80;8.20;;;;;;;10.47;93.65;100587.96;108430;1253;63756;-83
2023/04/19 03:08:38;;;;;;;27.10;8.90;;;;;;;10.49;93.98;100587.16;106778;1253;72502;-87
2023/04/19 03:11:05;;;;;;;28.20;12.10;;;;;;;10.44;93.88;100584.11;106354;1256;61423;-86
2023/04/19 03:13:32;;;;;;;28.70;12.80;;;;;;;10.37;94.11;100583.13;106076;1254;61074;-85
2023/04/19 03:15:59;;;;;;;27.40;11.80;;;;;;;10.34;94.48;100587.55;106156;1256;74824;-87
2023/04/19 03:18:26;;;;;;;22.40;10.70;;;;;;;10.33;94.59;100593.15;106060;1253;63806;-86
2023/04/19 03:20:54;;;;;;;24.80;11.20;;;;;;;10.31;94.60;100593.30;106052;1254;73622;-87
2023/04/19 03:23:24;;;;;;;29.70;10.00;;;;;;;10.26;94.72;100596.18;106012;1256;61948;-87
2023/04/19 03:25:51;;;;;;;23.10;10.10;;;;;;;10.25;95.25;100596.23;106101;1254;61193;-84
2023/04/19 03:28:31;;;;;;;27.10;10.20;;;;;;;10.29;95.40;100593.76;106024;1254;75376;-86
2023/04/19 03:31:31;;;;;;;37.50;23.70;;;;;;;10.35;95.73;100596.55;106019;1253;65564;-85
2023/04/19 03:33:58;;;;;;;25.50;7.80;;;;;;;10.41;95.64;100590.45;106024;1254;73843;-87
2023/04/19 03:36:29;;;;;;;26.30;9.00;;;;;;;10.46;95.50;100592.55;106024;1252;60826;-87
2023/04/19 03:38:58;;;;;;;22.20;9.00;;;;;;;10.50;95.19;100596.54;106095;1256;61091;-86
2023/04/19 03:41:26;;;;;;;26.30;10.10;;;;;;;10.50;94.78;100590.08;106303;1254;74918;-88
2023/04/19 03:44:13;;;;;;;26.20;9.30;;;;;;;10.47;94.93;100589.86;106379;1254;63624;-85
2023/04/19 03:46:45;;;;;;;16.90;7.60;;;;;;;10.48;94.94;100593.88;106253;1254;74376;-86
2023/04/19 03:49:12;;;;;;;26.70;8.80;;;;;;;10.48;94.88;100593.02;106106;1256;62941;-85
2023/04/19 03:51:41;;;;;;;26.10;8.50;;;;;;;10.49;94.86;100587.17;105970;1253;61038;-89
2023/04/19 03:54:08;;;;;;;21.70;7.80;;;;;;;10.50;94.76;100591.61;105934;1254;75183;-87
2023/04/19 03:56:35;;;;;;;29.20;9.30;;;;;;;10.51;94.76;100593.50;106012;1256;64856;-86
2023/04/19 03:59:02;;;;;;;29.40;8.60;;;;;;;10.51;94.66;100593.49;106056;1256;73118;-87
2023/04/19 04:01:29;;;;;;;30.50;8.60;;;;;;;10.53;94.96;100590.25;106833;1256;62893;-86
2023/04/19 04:03:56;;;;;;;26.70;8.80;;;;;;;10.58;95.03;100588.32;105922;1259;60541;-86
2023/04/19 04:06:25;;;;;;;40.50;11.20;;;;;;;10.65;94.91;100589.34;106097;1254;73749;-87
2023/04/19 04:08:52;;;;;;;30.80;11.30;;;;;;;10.69;94.59;100586.61;107278;1253;63944;-85
2023/04/19 04:11:19;;;;;;;34.60;11.00;;;;;;;10.74;94.65;100583.71;108138;1254;72640;-87
2023/04/19 04:13:49;;;;;;;36.40;13.70;;;;;;;10.76;94.25;100574.98;106632;1254;61512;-84
2023/04/19 04:16:20;;;;;;;29.60;12.00;;;;;;;10.79;94.19;100575.34;105932;1257;60350;-86
2023/04/19 04:18:47;;;;;;;30.50;11.20;;;;;;;10.82;94.00;100568.39;106091;1254;72773;-86
2023/04/19 04:21:14;;;;;;;47.10;12.50;;;;;;;10.84;93.81;100562.46;106043;1254;64852;-85
2023/04/19 04:23:44;;;;;;;30.30;11.50;;;;;;;10.85;93.67;100561.86;106125;1253;73723;-86
2023/04/19 04:26:18;;;;;;;21.80;11.00;;;;;;;10.87;93.42;100554.27;106000;1254;61843;-86
2023/04/19 04:28:58;;;;;;;38.80;12.80;;;;;;;10.88;93.49;100550.50;105656;1253;60986;-88
2023/04/19 04:31:25;;;;;;;32.40;11.40;;;;;;;10.93;93.56;100547.73;105902;1257;75178;-85
2023/04/19 04:33:54;;;;;;;31.80;9.30;;;;;;;10.97;93.46;100556.90;106065;1256;63635;-87
2023/04/19 04:36:21;;;;;;;25.20;9.20;;;;;;;11.02;92.71;100563.64;105916;1253;73477;-88
2023/04/19 04:38:48;;;;;;;29.20;9.50;;;;;;;11.02;92.49;100562.73;106081;1256;60652;-86
2023/04/19 04:41:15;;;;;;;30.80;10.50;;;;;;;11.03;92.08;100560.09;106065;1253;62235;-85
2023/04/19 04:43:42;;;;;;;31.40;9.20;;;;;;;11.02;92.13;100558.01;105874;1257;74650;-84
2023/04/19 04:46:10;;;;;;;29.30;10.50;;;;;;;11.02;91.80;100551.52;106202;1254;63587;-86
2023/04/19 04:48:38;;;;;;;37.30;10.50;;;;;;;11.03;91.80;100553.57;105983;1256;72758;-87
2023/04/19 04:51:05;;;;;;;28.20;9.10;;;;;;;11.04;91.92;100549.67;105873;1257;62085;-85
2023/04/19 04:53:33;;;;;;;27.10;8.70;;;;;;;11.06;91.95;100537.31;106103;1254;60816;-84
2023/04/19 04:56:02;;;;;;;33.60;8.90;;;;;;;11.10;91.73;100537.06;105955;1254;74905;-86
2023/04/19 04:58:30;;;;;;;26.00;8.60;;;;;;;11.17;91.63;100547.98;105945;1254;64853;-85
2023/04/19 05:01:03;;;;;;;32.50;7.90;;;;;;;11.20;90.92;100553.00;106055;1253;73376;-86
2023/04/19 05:03:32;;;;;;;41.20;8.90;;;;;;;11.21;90.28;100544.22;106173;1259;61181;-85
2023/04/19 05:06:01;;;;;;;27.60;8.60;;;;;;;11.24;90.11;100544.60;106072;1254;60492;-85
2023/04/19 05:08:29;;;;;;;30.50;8.60;;;;;;;11.27;89.84;100543.00;106410;1253;73796;-85
2023/04/19 05:11:08;;;;;;;37.60;9.00;;;;;;;11.31;89.41;100548.67;107348;1252;64818;-85
2023/04/19 05:13:36;;;;;;;35.00;8.30;;;;;;;11.34;89.24;100554.55;106510;1256;72622;-85
2023/04/19 05:16:03;;;;;;;44.20;10.20;;;;;;;11.40;88.67;100552.27;106392;1257;62976;-87
2023/04/19 05:18:31;;;;;;;36.80;8.60;;;;;;;11.45;88.37;100555.49;106240;1257;62160;-85
2023/04/19 05:20:59;;;;;;;28.10;7.90;;;;;;;11.51;87.93;100556.85;106160;1256;74756;-88
2023/04/19 05:23:29;;;;;;;37.70;8.50;;;;;;;11.57;87.80;100553.08;106115;1254;65631;-85
2023/04/19 05:28:52;;;;;;;33.60;9.20;;;;;;;11.84;87.70;100546.27;103282;1284;614413;-88
2023/04/19 05:31:44;;;;;;;36.70;8.40;;;;;;;12.10;87.56;100544.22;105383;1267;61072;-86
2023/04/19 05:34:32;;;;;;;37.00;8.70;;;;;;;12.39;86.68;100530.64;105668;1270;61420;-86
2023/04/19 05:36:59;;;;;;;35.30;9.60;;;;;;;12.64;85.34;100528.21;105589;1274;73208;-86
2023/04/19 05:39:27;;;;;;;34.90;10.20;;;;;;;12.88;84.65;100525.29;105680;1269;65359;-86
2023/04/19 05:41:54;;;;;;;34.80;8.90;;;;;;;13.12;84.27;100519.89;104776;1270;708049;-87
2023/04/19 05:44:21;;;;;;;29.90;8.40;;;;;;;13.34;83.08;100522.31;105541;1266;61971;-84
2023/04/19 05:46:48;;;;;;;32.60;8.50;;;;;;;13.48;82.02;100526.11;105093;1266;61655;-87
2023/04/19 05:49:20;;;;;;;39.00;10.20;;;;;;;13.59;81.08;100533.84;105182;1266;73159;-87
2023/04/19 05:52:01;;;;;;;36.80;9.90;;;;;;;13.76;79.95;100531.91;105374;1267;64815;-86
2023/04/19 05:54:35;;;;;;;36.70;8.90;;;;;;;14.11;79.71;100534.41;105516;1262;73709;-88
2023/04/19 05:57:03;;;;;;;38.20;8.80;;;;;;;14.63;79.03;100537.05;105772;1262;60037;-85
2023/04/19 05:59:31;;;;;;;35.60;8.80;;;;;;;15.10;75.93;100535.15;105773;1262;61578;-89
2023/04/19 06:01:59;;;;;;;36.50;8.30;;;;;;;15.36;74.19;100529.14;105680;1262;72847;-87
2023/04/19 06:04:27;;;;;;;36.90;8.80;;;;;;;15.54;72.57;100539.47;106021;1262;64840;-87
2023/04/19 06:06:55;;;;;;;34.90;9.70;;;;;;;15.56;70.18;100546.23;107471;1262;72443;-87
2023/04/19 06:09:22;;;;;;;35.40;8.30;;;;;;;15.36;70.08;100543.43;108943;1257;60332;-87
2023/04/19 06:11:49;;;;;;;41.30;8.30;;;;;;;15.12;70.18;100546.22;109051;1257;60213;-90
2023/04/19 06:14:18;;;;;;;37.30;9.90;;;;;;;14.89;71.03;100548.59;109479;1254;73173;-87
2023/04/19 06:16:46;;;;;;;39.90;7.90;;;;;;;14.71;72.06;100545.40;109456;1254;63846;-86
2023/04/19 06:19:13;;;;;;;33.40;8.00;;;;;;;14.56;72.10;100547.33;109399;1254;72500;-86
2023/04/19 06:21:40;;;;;;;42.20;8.90;;;;;;;14.38;72.98;100544.40;109435;1254;60780;-86
2023/04/19 06:24:07;;;;;;;30.30;8.60;;;;;;;14.31;73.42;100542.86;109402;1254;60348;-88
2023/04/19 06:26:34;;;;;;;43.80;7.30;;;;;;;14.28;73.39;100545.54;109235;1254;73040;-87
2023/04/19 06:29:01;;;;;;;33.00;6.70;;;;;;;14.27;72.49;100548.64;109157;1254;64211;-86
2023/04/19 06:31:28;;;;;;;35.30;6.30;;;;;;;14.22;72.74;100548.32;109275;1254;72636;-87
2023/04/19 06:33:55;;;;;;;31.00;7.10;;;;;;;14.22;72.80;100553.25;106583;1254;60986;-87
2023/04/19 06:36:22;;;;;;;34.20;7.60;;;;;;;14.22;72.78;100556.21;106279;1254;61140;-88
2023/04/19 06:38:50;;;;;;;38.30;7.40;;;;;;;14.15;72.65;100556.39;106209;1255;73797;-88
2023/04/19 06:41:17;;;;;;;32.60;6.10;;;;;;;14.09;72.34;100552.95;106117;1260;64785;-85
2023/04/19 06:43:44;;;;;;;41.40;7.70;;;;;;;14.12;72.52;100549.10;106020;1254;72995;-86
2023/04/19 06:46:13;;;;;;;40.20;5.90;;;;;;;14.19;72.80;100548.69;106286;1254;61359;-85
2023/04/19 06:48:40;;;;;;;37.40;8.30;;;;;;;14.35;72.06;100554.48;106139;1254;60772;-86
2023/04/19 06:51:08;;;;;;;34.10;7.20;;;;;;;14.55;71.00;100556.69;106038;1254;74281;-87
2023/04/19 06:53:35;;;;;;;31.10;6.90;;;;;;;14.70;70.60;100563.25;105920;1254;64820;-85
2023/04/19 06:56:03;;;;;;;41.00;8.40;;;;;;;14.81;70.23;100568.57;105980;1255;73079;-87
2023/04/19 06:58:31;;;;;;;37.10;6.90;;;;;;;14.89;69.90;100576.57;106040;1254;61487;-87
2023/04/19 07:01:03;;;;;;;44.50;7.60;;;;;;;14.92;69.21;100579.69;105914;1256;62275;-87
2023/04/19 07:03:30;;;;;;;23.20;5.60;;;;;;;14.87;68.32;100585.02;105823;1254;73958;-86
2023/04/19 07:05:58;;;;;;;35.40;8.40;;;;;;;14.76;68.61;100585.71;105881;1256;64633;-86
2023/04/19 07:08:25;;;;;;;31.10;8.30;;;;;;;14.64;68.86;100597.73;105790;1255;73565;-85
2023/04/19 07:11:09;;;;;;;44.20;10.10;;;;;;;14.51;69.41;100600.48;105839;1254;61233;-85
2023/04/19 07:13:37;;;;;;;42.40;8.90;;;;;;;14.39;69.59;100592.02;105677;1256;60212;-86
2023/04/19 07:16:04;;;;;;;36.80;8.00;;;;;;;14.33;69.81;100580.17;105902;1258;73005;-85
2023/04/19 07:18:32;;;;;;;30.00;9.00;;;;;;;14.28;69.79;100582.11;106114;1258;64541;-88
2023/04/19 07:20:59;;;;;;;43.90;10.50;;;;;;;14.26;69.92;100586.34;106143;1258;74435;-84
2023/04/19 07:23:26;;;;;;;35.30;7.40;;;;;;;14.30;69.68;100593.93;106625;1253;60339;-85
2023/04/19 07:25:53;;;;;;;46.30;11.10;;;;;;;14.39;69.96;100588.73;106789;1254;60146;-84
2023/04/19 07:28:20;;;;;;;38.30;9.20;;;;;;;14.56;69.46;100580.91;106521;1254;73369;-86
2023/04/19 07:30:49;;;;;;;27.90;10.80;;;;;;;14.75;69.75;100576.27;107394;1254;65102;-86
2023/04/19 07:33:16;;;;;;;34.30;7.10;;;;;;;15.04;69.41;100578.76;109194;1254;72604;-88
2023/04/19 07:35:43;;;;;;;42.40;7.80;;;;;;;15.41;67.90;100572.79;109259;1254;61225;-87
2023/04/19 07:38:10;;;;;;;39.40;8.40;;;;;;;15.81;66.38;100574.44;108931;1253;60137;-87
2023/04/19 07:40:37;;;;;;;33.80;7.90;;;;;;;16.18;65.59;100574.21;109481;1254;73153;-86
2023/04/19 07:43:04;;;;;;;27.90;7.50;;;;;;;16.56;64.25;100570.25;109491;1254;63080;-86
2023/04/19 07:45:32;;;;;;;33.80;8.60;;;;;;;16.86;59.90;100574.20;109404;1254;72446;-87
2023/04/19 07:48:01;;;;;;;35.60;8.90;;;;;;;16.97;59.45;100571.34;109209;1254;60704;-88
2023/04/19 07:50:30;;;;;;;32.10;5.90;;;;;;;17.01;58.12;100577.35;108972;1254;60228;-87
2023/04/19 07:52:57;;;;;;;32.70;5.20;;;;;;;17.00;56.99;100575.54;108903;1254;72827;-87
2023/04/19 07:55:24;;;;;;;30.90;5.60;;;;;;;17.11;56.66;100573.27;109186;1254;63807;-82
2023/04/19 07:57:51;;;;;;;25.50;5.30;;;;;;;17.54;55.77;100567.56;108852;1254;73102;-85
2023/04/19 08:00:20;;;;;;;27.20;5.30;;;;;;;18.16;54.54;100567.92;107697;1254;60342;-84
2023/04/19 08:02:47;;;;;;;21.20;4.40;;;;;;;18.84;51.64;100557.43;108164;1254;60509;-84
2023/04/19 08:05:18;;;;;;;26.10;4.90;;;;;;;19.45;48.99;100550.84;107269;1254;74555;-89
2023/04/19 08:07:46;;;;;;;28.00;6.10;;;;;;;19.82;48.51;100548.11;106430;1260;63926;-87
2023/04/19 08:10:13;;;;;;;25.90;6.00;;;;;;;20.09;47.59;100547.48;106156;1254;73099;-89
2023/04/19 08:12:40;;;;;;;23.00;6.10;;;;;;;20.38;46.86;100546.17;106055;1254;61477;-85
2023/04/19 08:15:26;;;;;;;31.10;8.60;;;;;;;20.77;46.06;100542.34;106073;1254;60456;-87
2023/04/19 08:17:56;;;;;;;21.50;6.20;;;;;;;21.14;45.01;100539.15;106175;1258;73931;-86
2023/04/19 08:20:24;;;;;;;23.70;7.10;;;;;;;21.33;43.74;100537.80;106438;1254;63754;-84
2023/04/19 08:22:52;;;;;;;28.70;7.50;;;;;;;21.44;42.53;100536.81;106393;1255;72450;-89
2023/04/19 08:25:22;;;;;;;24.00;7.60;;;;;;;21.55;42.79;100533.73;107128;1254;60347;-86
2023/04/19 08:27:49;;;;;;;34.10;9.90;;;;;;;21.65;42.09;100539.73;106841;1254;60356;-84
2023/04/19 08:30:16;;;;;;;29.10;8.50;;;;;;;21.73;41.57;100534.92;106414;1258;74033;-85
2023/04/19 08:32:43;;;;;;;27.90;7.80;;;;;;;21.81;41.55;100529.70;106354;1254;65111;-85
2023/04/19 08:35:10;;;;;;;32.10;7.60;;;;;;;21.84;41.04;100525.38;106488;1254;74495;-87
2023/04/19 08:37:37;;;;;;;28.00;8.20;;;;;;;21.91;41.13;100509.89;107885;1254;60615;-86
2023/04/19 08:40:05;;;;;;;24.00;5.10;;;;;;;22.14;40.94;100525.14;106289;1254;60294;-87
2023/04/19 08:42:32;;;;;;;31.70;7.40;;;;;;;22.44;40.12;100523.49;105827;1254;73068;-89
2023/04/19 08:45:05;;;;;;;30.60;9.30;;;;;;;22.75;40.02;100513.69;106151;1254;65399;-88
2023/04/19 08:47:35;;;;;;;27.80;5.00;;;;;;;23.14;39.20;100515.69;106176;1258;73563;-88
2023/04/19 08:50:14;;;;;;;23.20;4.70;;;;;;;23.45;38.23;100518.79;106454;1254;61881;-88
2023/04/19 08:53:02;;;;;;;26.80;5.00;;;;;;;23.51;37.81;100512.55;105896;1260;59638;-88
2023/04/19 08:55:49;;;;;;;28.50;6.90;;;;;;;23.58;37.48;100515.73;106041;1256;74179;-88
2023/04/19 08:58:19;;;;;;;34.20;6.70;;;;;;;23.67;37.11;100510.94;105746;1254;64468;-89
2023/04/19 09:01:07;;;;;;;24.60;6.60;;;;;;;23.75;36.86;100505.79;106025;1254;72552;-86
2023/04/19 09:03:47;;;;;;;29.40;4.60;;;;;;;23.84;36.83;100510.46;106342;1254;61383;-89
2023/04/19 09:06:37;;;;;;;29.50;7.20;;;;;;;23.86;36.72;100507.90;106022;1253;60535;-88
2023/04/19 09:09:22;;;;;;;22.20;7.40;;;;;;;23.60;36.64;100510.33;106472;1256;73920;-85
2023/04/19 09:11:52;;;;;;;25.10;8.80;;;;;;;23.11;37.09;100507.27;106276;1258;64367;-87
2023/04/19 09:14:20;;;;;;;27.00;7.50;;;;;;;22.76;37.75;100509.13;106330;1254;73541;-86
2023/04/19 09:16:47;;;;;;;32.60;9.20;;;;;;;22.58;38.00;100506.42;106491;1256;60161;-86
2023/04/19 09:19:18;;;;;;;42.80;8.50;;;;;;;22.49;38.73;100500.23;107350;1254;60501;-88
2023/04/19 09:21:53;;;;;;;27.20;5.40;;;;;;;22.48;38.57;100500.33;109054;1254;73214;-84
2023/04/19 09:24:38;;;;;;;23.40;5.00;;;;;;;22.50;39.27;100498.66;107546;1254;64761;-86
2023/04/19 09:27:27;;;;;;;27.10;5.00;;;;;;;22.55;39.04;100496.20;106900;1256;72636;-85
2023/04/19 09:29:55;;;;;;;24.00;4.50;;;;;;;22.65;38.89;100502.38;106461;1254;60530;-89
2023/04/19 09:32:23;;;;;;;29.90;4.80;;;;;;;22.77;38.59;100493.69;106561;1257;60312;-87
2023/04/19 09:34:52;;;;;;;22.10;5.40;;;;;;;22.98;39.25;100492.35;107067;1255;72964;-87
2023/04/19 09:37:19;;;;;;;22.30;5.10;;;;;;;23.29;38.50;100490.50;106722;1257;64660;-90
2023/04/19 09:40:23;;;;;;;28.60;5.10;;;;;;;23.52;38.37;100489.77;106110;1254;72680;-85
2023/04/19 09:42:50;;;;;;;22.30;5.40;;;;;;;23.42;37.65;100489.61;106070;1254;60560;-88
2023/04/19 09:45:20;;;;;;;27.20;4.50;;;;;;;23.07;38.31;100491.77;106334;1254;60456;-87
2023/04/19 09:48:02;;;;;;;25.90;5.40;;;;;;;22.72;38.64;100483.23;105979;1256;73728;-87
2023/04/19 09:50:31;;;;;;;21.00;4.30;;;;;;;22.61;39.25;100487.19;106004;1255;64480;-87
2023/04/19 09:53:00;;;;;;;19.50;4.60;;;;;;;22.75;39.33;100477.39;106053;1254;72543;-87
2023/04/19 09:55:27;;;;;;;21.40;5.80;;;;;;;23.06;38.81;100479.73;105998;1258;60557;-89
2023/04/19 09:58:00;;;;;;;23.60;5.20;;;;;;;23.39;38.12;100488.52;106182;1257;60458;-90
2023/04/19 10:00:28;;;;;;;21.70;6.50;;;;;;;23.59;38.43;100480.73;106222;1254;74678;-88
2023/04/19 10:03:05;;;;;;;31.70;5.80;;;;;;;23.67;37.89;100485.81;106525;1256;62956;-87
2023/04/19 10:05:33;;;;;;;21.70;5.20;;;;;;;23.47;38.35;100489.98;105973;1256;73228;-90
2023/04/19 10:08:01;;;;;;;24.20;5.70;;;;;;;23.27;38.12;100488.21;106277;1254;60477;-88
2023/04/19 10:10:29;;;;;;;25.50;6.00;;;;;;;22.90;38.54;100487.65;106097;1256;61886;-89
2023/04/19 10:13:01;;;;;;;32.00;6.90;;;;;;;22.47;39.25;100487.16;105914;1254;74239;-86
2023/04/19 10:15:31;;;;;;;23.90;4.80;;;;;;;22.06;40.20;100486.98;106182;1255;64109;-90
2023/04/19 10:18:17;;;;;;;27.50;5.20;;;;;;;21.62;40.73;100485.78;106019;1254;73833;-86
2023/04/19 10:21:00;;;;;;;33.60;4.90;;;;;;;21.24;41.78;100477.96;106200;1256;60931;-86
2023/04/19 10:23:30;;;;;;;37.70;6.00;;;;;;;21.11;41.65;100481.51;106002;1258;60538;-87
2023/04/19 10:25:58;;;;;;;29.40;6.30;;;;;;;21.07;41.71;100486.91;106375;1257;75118;-89
2023/04/19 10:28:29;;;;;;;26.20;5.70;;;;;;;21.03;41.80;100488.72;106468;1253;63614;-88
2023/04/19 10:31:01;;;;;;;20.80;5.30;;;;;;;20.89;42.05;100493.36;106406;1255;73564;-89
2023/04/19 10:33:36;;;;;;;25.00;4.40;;;;;;;20.63;42.29;100494.90;106390;1256;60562;-86
2023/04/19 10:36:08;;;;;;;23.80;4.50;;;;;;;20.25;42.76;100499.73;106266;1254;60545;-88
2023/04/19 10:38:45;;;;;;;22.70;4.60;;;;;;;19.90;43.50;100497.91;107798;1255;74828;-88
2023/04/19 10:41:14;;;;;;;25.50;5.40;;;;;;;19.59;44.37;100501.36;107914;1254;64804;-88
2023/04/19 10:43:56;;;;;;;23.50;4.90;;;;;;;19.37;44.93;100494.48;108358;1254;72338;-87
2023/04/19 10:46:28;;;;;;;28.60;4.60;;;;;;;19.18;45.60;100502.78;108309;1254;60480;-89
2023/04/19 10:49:12;;;;;;;17.60;4.30;;;;;;;19.14;46.24;100500.38;108477;1255;60096;-86
2023/04/19 10:51:48;;;;;;;24.10;6.40;;;;;;;19.10;45.94;100502.03;108112;1254;73713;-87
2023/04/19 10:54:36;;;;;;;;;;;;;;;18.97;46.14;100501.87;107709;1256;63722;-87
2023/04/19 10:57:10;;;;;;;24.90;4.40;;;;;;;18.83;46.31;100504.40;107819;1258;72417;-86
2023/04/19 11:00:21;;;;;;;25.40;4.90;;;;;;;18.80;46.48;100511.05;108128;1255;60478;-86
2023/04/19 11:02:52;;;;;;;23.70;5.40;;;;;;;18.87;46.46;100511.16;108021;1254;61033;-86
2023/04/19 11:05:20;;;;;;;28.80;5.20;;;;;;;18.90;46.42;100509.25;108045;1254;73707;-90
2023/04/19 11:07:47;;;;;;;27.80;5.20;;;;;;;18.91;46.31;100509.83;106893;1257;64748;-87
2023/04/19 11:10:27;;;;;;;31.60;6.60;;;;;;;18.91;46.42;100506.48;106155;1258;72738;-84
2023/04/19 11:12:54;;;;;;;33.90;8.60;;;;;;;18.95;46.18;100510.80;105845;1258;61110;-88
2023/04/19 11:15:22;;;;;;;30.70;9.10;;;;;;;18.93;45.96;100511.59;106079;1255;61684;-87
2023/04/19 11:17:52;;;;;;;38.70;6.90;;;;;;;18.85;46.29;100510.95;106225;1257;74646;-87
2023/04/19 11:20:38;;;;;;;27.20;8.50;;;;;;;18.70;46.74;100510.56;107913;1253;64408;-85
2023/04/19 11:23:17;;;;;;;27.70;6.10;;;;;;;18.59;47.28;100516.11;106466;1256;72510;-83